Terminal Aerodrome Forecast
Issued by NWS Billings, MT

Home | Current Version | Previous Version | Text Only | Print | Product List | Glossary On
Versions: 1 2 3 4 5 6 7 8 9 10 11 12 13 14
000
FTUS45 KBYZ 230534
TAFBIL
TAF
KBIL 230534Z 2306/2406 30022G30KT P6SM VCSH BKN070 WS020/15030KT
     FM230800 30026G36KT P6SM VCSH BKN040 BKN090
     FM231300 28030G38KT P6SM VCSH BKN060
     FM240300 29019KT P6SM BKN070=

USA.gov is the U.S. government's official web portal to all federal, state and local government web resources and services.